createdAt,value
2018-11-06T00:03:15.600Z,38.87
2018-11-06T00:08:20.967Z,39.27
2018-11-06T00:13:31.517Z,40.47
2018-11-06T00:18:36.237Z,39.63
2018-11-06T00:23:41.563Z,40.50
2018-11-06T00:28:46.089Z,37.37
2018-11-06T00:33:50.420Z,39.93
2018-11-06T00:38:55.326Z,34.10
2018-11-06T00:43:59.920Z,40.73
2018-11-06T00:49:04.317Z,38.13
2018-11-06T00:54:09.236Z,38.03
2018-11-06T00:59:13.749Z,36.93
2018-11-06T01:04:18.084Z,37.07
2018-11-06T01:09:23.398Z,37.10
2018-11-06T01:14:27.730Z,35.20
2018-11-06T01:19:33.391Z,40.87
2018-11-06T01:24:37.815Z,39.80
2018-11-06T01:29:42.564Z,39.40
2018-11-06T01:34:51.962Z,39.03
2018-11-06T01:39:56.486Z,42.20
2018-11-06T01:45:01.122Z,34.60
2018-11-06T01:50:06.292Z,38.63
2018-11-06T01:55:11.734Z,36.83
2018-11-06T02:00:17.171Z,38.33
2018-11-06T02:05:21.473Z,40.10
2018-11-06T02:10:26.103Z,37.50
2018-11-06T02:15:30.518Z,40.80
2018-11-06T02:20:34.965Z,38.37
2018-11-06T02:25:39.329Z,37.07
2018-11-06T02:30:43.339Z,39.00
2018-11-06T02:35:48.173Z,35.77
2018-11-06T02:40:53.630Z,38.57
2018-11-06T02:45:58.651Z,37.67
2018-11-06T02:51:04.633Z,35.63
2018-11-06T02:56:10.329Z,37.63
2018-11-06T03:01:15.067Z,35.77
2018-11-06T03:06:19.592Z,41.23
2018-11-06T03:11:24.598Z,37.53
2018-11-06T03:16:34.287Z,40.27
2018-11-06T03:21:38.863Z,38.97
2018-11-06T03:26:43.763Z,36.50
2018-11-06T03:31:49.561Z,35.30
2018-11-06T03:36:53.973Z,34.10
2018-11-06T03:41:58.387Z,34.67
2018-11-06T03:47:03.045Z,38.73
2018-11-06T03:52:07.715Z,33.93
2018-11-06T03:57:12.109Z,38.23
2018-11-06T04:02:16.419Z,34.30
2018-11-06T04:07:21.408Z,35.27
2018-11-06T04:12:26.260Z,34.50
2018-11-06T04:17:32.501Z,38.23
2018-11-06T04:22:36.807Z,35.17
2018-11-06T04:27:41.137Z,35.47
2018-11-06T04:32:46.437Z,34.20
2018-11-06T04:37:50.797Z,35.03
2018-11-06T04:42:56.068Z,33.70
2018-11-06T04:48:00.719Z,33.10
2018-11-06T04:53:06.134Z,37.50
2018-11-06T04:58:11.869Z,34.97
2018-11-06T05:03:16.496Z,32.93
2018-11-06T05:08:20.999Z,36.07
2018-11-06T05:13:25.671Z,33.50
2018-11-06T05:18:30.040Z,34.23
2018-11-06T05:23:34.653Z,34.57
2018-11-06T05:28:40.314Z,37.47
2018-11-06T05:33:45.152Z,36.20
2018-11-06T05:38:49.582Z,36.63
2018-11-06T05:44:03.471Z,37.90
2018-11-06T05:49:07.754Z,36.73
2018-11-06T05:54:12.886Z,36.57
2018-11-06T05:59:17.169Z,36.47
2018-11-06T06:04:36.026Z,35.33
2018-11-06T06:09:40.517Z,34.87
2018-11-06T06:14:44.901Z,34.67
2018-11-06T06:19:50.325Z,35.80
2018-11-06T06:24:55.784Z,37.97
2018-11-06T06:30:03.235Z,35.47
2018-11-06T06:35:08.810Z,36.50
2018-11-06T06:40:15.051Z,33.40
2018-11-06T06:45:29.592Z,35.73
2018-11-06T06:50:35.524Z,36.50
2018-11-06T06:55:40.594Z,40.67
2018-11-06T07:00:44.887Z,38.00
2018-11-06T07:05:59.136Z,38.73
2018-11-06T07:11:03.582Z,37.60
2018-11-06T07:16:09.533Z,35.90
2018-11-06T07:21:14.099Z,32.33
2018-11-06T07:26:41.030Z,30.20
2018-11-06T07:31:45.308Z,35.70
2018-11-06T07:36:50.128Z,29.00
2018-11-06T07:41:54.638Z,33.00
2018-11-06T07:47:04.698Z,29.57
2018-11-06T07:52:10.924Z,40.23
2018-11-06T07:57:15.228Z,33.07
2018-11-06T08:02:19.600Z,32.30
2018-11-06T08:07:42.860Z,29.07
2018-11-06T08:12:49.612Z,31.23
2018-11-06T08:17:54.088Z,30.27
2018-11-06T08:22:58.392Z,39.07
2018-11-06T08:28:02.881Z,31.40
2018-11-06T08:33:07.258Z,30.60
2018-11-06T08:38:11.560Z,28.77
2018-11-06T08:43:15.958Z,28.93
2018-11-06T08:48:20.595Z,30.77
2018-11-06T08:53:24.790Z,29.60
2018-11-06T08:58:29.245Z,30.93
2018-11-06T09:03:33.721Z,25.93
2018-11-06T09:08:38.456Z,26.70
2018-11-06T09:13:43.898Z,26.73
2018-11-06T09:18:55.777Z,33.57
2018-11-06T09:24:00.408Z,26.77
2018-11-06T09:29:04.917Z,27.43
2018-11-06T09:34:09.960Z,26.83
2018-11-06T09:39:15.423Z,26.37
2018-11-06T09:44:19.780Z,28.90
2018-11-06T09:49:25.271Z,30.40
2018-11-06T09:54:32.466Z,30.07
2018-11-06T09:59:37.284Z,28.70
2018-11-06T10:04:41.991Z,26.53
2018-11-06T10:09:46.461Z,25.27
2018-11-06T10:14:52.022Z,25.87
2018-11-06T10:19:56.298Z,25.23
2018-11-06T10:25:00.641Z,23.43
2018-11-06T10:30:06.582Z,24.27
2018-11-06T10:35:20.361Z,21.83
2018-11-06T10:40:24.779Z,20.03
2018-11-06T10:45:29.567Z,17.83
2018-11-06T10:50:37.073Z,19.93
2018-11-06T10:55:44.132Z,17.77
2018-11-06T11:00:54.596Z,16.80
2018-11-06T11:06:13.740Z,16.60
2018-11-06T11:11:18.367Z,18.00
2018-11-06T11:16:25.996Z,15.90
2018-11-06T11:21:32.736Z,17.23
2018-11-06T11:26:37.172Z,15.17
2018-11-06T11:31:41.855Z,18.13
2018-11-06T11:36:47.045Z,16.97
2018-11-06T11:41:51.687Z,14.63
2018-11-06T11:46:56.334Z,13.27
2018-11-06T11:52:01.039Z,16.10
2018-11-06T11:57:06.018Z,12.50
2018-11-06T12:02:10.521Z,14.30
2018-11-06T12:07:15.012Z,16.33
2018-11-06T12:12:19.539Z,14.20
2018-11-06T12:17:25.097Z,20.90
2018-11-06T12:22:29.706Z,12.30
2018-11-06T12:27:34.021Z,10.57
2018-11-06T12:32:38.784Z,12.80
2018-11-06T12:37:48.181Z,10.43
2018-11-06T12:42:54.980Z,11.13
2018-11-06T12:47:59.539Z,12.40
2018-11-06T12:53:05.620Z,12.65
2018-11-06T12:58:10.635Z,10.43
2018-11-06T13:53:58.922Z,13.53
2018-11-06T13:59:05.702Z,15.08
2018-11-06T14:04:10.408Z,15.03
2018-11-06T14:09:15.229Z,14.47
2018-11-06T14:14:19.955Z,16.05
2018-11-06T14:19:25.910Z,16.17
2018-11-06T14:24:30.389Z,17.65
2018-11-06T14:29:34.772Z,17.50
2018-11-06T14:34:39.508Z,13.20
2018-11-06T14:39:44.108Z,15.93
2018-11-06T14:44:58.564Z,15.80
2018-11-06T14:50:03.065Z,15.90
2018-11-06T14:55:09.002Z,14.33
2018-11-06T15:00:20.735Z,15.57
2018-11-06T15:05:25.386Z,14.50
2018-11-06T15:10:30.229Z,15.97
2018-11-06T15:15:34.785Z,14.87
2018-11-06T15:20:39.910Z,17.33
2018-11-06T15:25:45.212Z,16.27
2018-11-06T15:30:49.935Z,17.10
2018-11-06T15:35:59.393Z,21.17
2018-11-06T15:41:04.039Z,20.43
2018-11-06T15:46:14.566Z,22.67
2018-11-06T15:51:19.405Z,20.77
2018-11-06T15:56:24.549Z,19.97
2018-11-06T16:01:29.433Z,19.03
2018-11-06T16:06:34.273Z,22.40
2018-11-06T16:11:38.974Z,20.27
2018-11-06T16:16:44.222Z,21.63
2018-11-06T16:21:57.115Z,20.37
2018-11-06T16:27:03.008Z,19.50
2018-11-06T16:32:24.162Z,18.47
2018-11-06T16:43:17.590Z,21.80
2018-11-06T16:48:28.303Z,22.83
2018-11-06T16:53:39.430Z,22.63
2018-11-06T16:59:01.981Z,23.67
2018-11-06T17:04:17.111Z,27.00
2018-11-06T17:09:27.131Z,23.30
2018-11-06T17:14:33.733Z,24.67
2018-11-06T17:19:41.116Z,27.27
2018-11-06T17:24:48.505Z,26.47
2018-11-06T17:29:56.918Z,28.43
2018-11-06T17:35:02.761Z,26.63
2018-11-06T17:40:10.049Z,28.93
2018-11-06T17:45:18.661Z,28.30
2018-11-06T17:50:29.432Z,29.57
2018-11-06T17:55:35.674Z,28.10
2018-11-06T18:00:47.485Z,30.77
2018-11-06T18:05:56.467Z,29.23
2018-11-06T18:11:14.172Z,32.00
2018-11-06T18:16:19.275Z,33.77
2018-11-06T18:21:29.155Z,33.73
2018-11-06T18:26:34.911Z,34.97
2018-11-06T18:31:41.773Z,35.07
2018-11-06T18:36:46.841Z,38.27
2018-11-06T18:41:51.957Z,34.77
2018-11-06T18:47:02.515Z,35.27
2018-11-06T18:52:22.146Z,36.00
2018-11-06T18:57:33.387Z,35.17
2018-11-06T19:02:39.680Z,35.50
2018-11-06T19:07:45.433Z,38.57
2018-11-06T19:12:51.171Z,39.53
2018-11-06T19:17:56.756Z,37.60
2018-11-06T19:23:13.438Z,37.17
2018-11-06T19:28:18.809Z,37.87
2018-11-06T19:33:27.619Z,40.17
2018-11-06T19:38:37.284Z,39.10
2018-11-06T19:43:50.113Z,39.43
2018-11-06T19:48:56.563Z,40.80
2018-11-06T19:54:01.712Z,37.87
2018-11-06T19:59:10.560Z,39.00
2018-11-06T20:04:27.496Z,38.50
2018-11-06T20:09:32.207Z,41.97
2018-11-06T20:14:46.319Z,42.20
2018-11-06T20:19:54.213Z,42.87
2018-11-06T20:25:05.333Z,40.27
2018-11-06T20:30:13.680Z,43.57
2018-11-06T20:35:18.638Z,43.97
2018-11-06T20:40:26.685Z,42.00
2018-11-06T20:45:32.222Z,42.53
2018-11-06T20:50:38.035Z,46.20
2018-11-06T20:55:50.254Z,44.77
2018-11-06T21:00:55.927Z,44.90
2018-11-06T21:06:02.568Z,41.13
2018-11-06T21:11:11.115Z,46.20
2018-11-06T21:16:27.354Z,43.90
2018-11-06T21:21:36.643Z,45.00
2018-11-06T21:26:42.013Z,43.97
2018-11-06T21:31:46.720Z,42.97
2018-11-06T21:36:51.353Z,44.93
2018-11-06T21:41:56.325Z,46.87
2018-11-06T21:47:01.463Z,45.67
2018-11-06T21:52:06.233Z,48.67
2018-11-06T21:57:11.003Z,45.97
2018-11-06T22:02:15.618Z,41.83
2018-11-06T22:07:20.472Z,47.37
2018-11-06T22:12:25.891Z,45.53
2018-11-06T22:17:31.388Z,43.47
2018-11-06T22:22:37.677Z,44.23
2018-11-06T22:27:45.707Z,45.00
2018-11-06T22:32:50.613Z,46.60
2018-11-06T22:38:05.804Z,43.30
2018-11-06T22:43:12.675Z,44.63
2018-11-06T22:48:18.213Z,45.50
2018-11-06T22:53:32.577Z,51.13
2018-11-06T22:58:38.873Z,47.80
2018-11-06T23:03:53.760Z,47.53
2018-11-06T23:09:02.537Z,45.57
2018-11-06T23:14:09.261Z,48.27
2018-11-06T23:19:20.176Z,50.13
2018-11-06T23:24:38.868Z,48.23
2018-11-06T23:29:44.105Z,45.50
2018-11-06T23:34:53.727Z,51.57
2018-11-06T23:39:58.714Z,48.43
2018-11-06T23:45:05.109Z,51.70
2018-11-06T23:50:11.400Z,47.20
2018-11-06T23:55:18.351Z,50.57
